Lebo, Kansas
Current Conditions -  °F | °C
As of 5:53 PM on Friday 31 Oct 2014 (Local Time) from KEMP Reporting Station
Clear Clear  
Wind Chill:   Ceiling: Unl
Heat Index:   Visibility: 10mi
Dew Point: -8°   Wind: 10mph
Humidity: 35%   Direction: 30°NNE
Pressure: 30.44"   Gusts: NA
Location:  38.42°N, 95.85°W
Report Text: KEMP 312253Z AUTO 03009KT 10SM CLR 06/M08 A3044 RMK AO2 SLP316 T00611083
Loading
Personal Weather Stations






























Interactive Weather Map
Tropical Storm Tracking
New forecast layout! Learn more

10-Day Weather Forecast

Advertisements
Track Severe Weather on mobile